メインページ
METAR-TAF:

METAR-TAF

空港 :

サドバリー, オンタリオ州, カナダ

緯度: 46-37N, 経度: 080-48W, 海抜: 348m

現時点の気象観測

当レポートは17分前の06:00(UTC)に作成
の風 4kt
気温 3°C
湿度 87%
気圧 1017 hPa
視程: 24.1km
高度9000ftの千切れ雲あり

METAR: CYSB 040600Z 08004KT 15SM BKN090 03/01 A3004 RMK AC5 SLP188

時間: 02:17 (06:17 UTC)

予報

当レポートは4時間38分前の01:39(UTC)に作成
予報は04日の 02時(UTC)から 04日の 14時(UTC)まで有効
変向風 3kt
視程: 10km
高度9000ftの雲は散在している
04日の 0300時(UTC)から
東/北東の風 7kt
視程: 10km
高度2000ftの雲はほとんどない
確率 40%
04日の 03時(UTC)から 04日の 07時(UTC)まで
視程: 1.6km
04日の 0700時(UTC)から
北/北東の風 5kt
視程: 1.6km
高度300ftの千切れ雲あり
04日の 07時(UTC)から 04日の 13時(UTC)まで一時的に
視程: 4.8km
高度300ftの雲は散在している
04日の 1300時(UTC)から
変向風 3kt
視程: 1.2km
高度200ftの千切れ雲あり
04日の 13時(UTC)から 04日の 14時(UTC)まで徐々に
視程: 9.7km
高度800ftの雲は散在している

TAF: CYSB 040139Z 0402/0414 VRB03KT P6SM SCT090 FM040300 06007KT P6SM FEW020 PROB40 0403/0407 1SM BR FM040700 03005KT 1SM BR BKN003 TEMPO 0407/0413 3SM BR SCT003 FM041300 VRB03KT 3/4SM BR BKN002 BECMG 0413/0414 6SM BR SCT008 RMK NXT FCST BY 040800Z

4,000以上の空港の気象観測と天気予報(METAR報とTAF報)

利用可能な観測所は地図上に黄色い丸と赤い丸で示す。

丸の上にカーソルを重ねると観測所名を参照できる。

次にクリックすると気象観測と天気予報を参照できる。

マップの切り替え:黒色「×」印の緑ボタンをクリックして拡大、「-」印の緑ボタンをクリックして縮小、緑色の三角印をクリックして隣りの地図に切り替え


METAR-TAF: